Abeytas, New Mexico
Current Conditions -  °F | °C
As of 2:55 AM on Thursday 25 Dec 2014 (Local Time) from KE80 Reporting Station
Clear Clear  
Wind Chill: 24°   Ceiling: Unl
Heat Index: 34°   Visibility: 10mi
Dew Point:   Wind: 15mph
Humidity: 34%   Direction: 170°S
Pressure: 29.77"   Gusts: 21mph
Location:  34.4828°N, 106.804°W
Report Text: KE80 250955Z AUTO 17013G18KT 10SM CLR 01/M13 A2977 RMK AO2 T00101135
Loading
Personal Weather Stations






























Interactive Weather Map New forecast layout! Learn more

10-Day Weather Forecast

Advertisements
Track Severe Weather on mobile